createdAt,value
2022-11-02T00:02:04.933Z,2.67
2022-11-02T00:04:33.838Z,2.47
2022-11-02T00:07:03.785Z,2.85
2022-11-02T00:09:40.397Z,3.83
2022-11-02T00:12:11.658Z,3.28
2022-11-02T00:14:40.370Z,2.33
2022-11-02T00:17:18.438Z,2.65
2022-11-02T00:19:49.510Z,2.17
2022-11-02T00:22:18.316Z,2.10
2022-11-02T00:24:49.351Z,3.47
2022-11-02T00:27:21.217Z,2.63
2022-11-02T00:29:50.022Z,2.58
2022-11-02T00:32:19.846Z,2.22
2022-11-02T00:35:17.097Z,1.33
2022-11-02T00:37:48.470Z,0.45
2022-11-02T00:40:19.662Z,1.60
2022-11-02T00:42:50.661Z,1.90
2022-11-02T00:45:19.745Z,1.20
2022-11-02T00:47:48.808Z,1.58
2022-11-02T00:50:18.503Z,1.80
2022-11-02T00:52:47.284Z,1.52
2022-11-02T00:55:18.165Z,1.02
2022-11-02T00:57:47.606Z,0.95
2022-11-02T01:00:18.442Z,0.80
2022-11-02T01:02:47.977Z,1.70
2022-11-02T01:05:17.363Z,0.80
2022-11-02T01:07:46.607Z,1.95
2022-11-02T01:10:15.624Z,0.57
2022-11-02T01:12:44.286Z,0.63
2022-11-02T01:15:13.342Z,1.42
2022-11-02T01:17:43.417Z,0.85
2022-11-02T01:20:13.255Z,1.35
2022-11-02T01:22:41.940Z,0.82
2022-11-02T01:25:10.789Z,1.52
2022-11-02T01:27:41.947Z,0.60
2022-11-02T01:30:12.189Z,0.90
2022-11-02T01:32:40.966Z,0.93
2022-11-02T01:35:12.212Z,1.88
2022-11-02T01:37:48.843Z,1.23
2022-11-02T01:40:22.847Z,1.67
2022-11-02T01:42:51.810Z,2.42
2022-11-02T01:45:22.932Z,1.30
2022-11-02T01:47:51.833Z,1.50
2022-11-02T01:50:28.052Z,1.73
2022-11-02T01:52:57.878Z,1.58
2022-11-02T01:55:31.493Z,2.15
2022-11-02T01:58:04.189Z,2.17
2022-11-02T02:00:34.749Z,1.55
2022-11-02T02:03:09.038Z,1.50
2022-11-02T02:05:44.377Z,2.13
2022-11-02T02:08:22.874Z,2.35
2022-11-02T02:10:51.859Z,2.55
2022-11-02T02:13:21.143Z,2.63
2022-11-02T02:16:00.272Z,1.50
2022-11-02T02:18:35.476Z,1.98
2022-11-02T02:21:21.388Z,2.30
2022-11-02T02:24:28.737Z,1.92
2022-11-02T02:27:10.109Z,1.70
2022-11-02T02:30:10.618Z,1.58
2022-11-02T02:32:46.149Z,2.47
2022-11-02T02:35:25.779Z,1.80
2022-11-02T02:37:58.529Z,2.00
2022-11-02T02:40:34.984Z,2.50
2022-11-02T02:43:12.063Z,1.55
2022-11-02T02:45:48.845Z,1.77
2022-11-02T02:48:21.197Z,1.98
2022-11-02T02:50:51.814Z,2.00
2022-11-02T02:53:26.540Z,1.80
2022-11-02T02:55:56.605Z,2.90
2022-11-02T02:58:33.508Z,1.60
2022-11-02T03:01:07.394Z,2.58
2022-11-02T03:03:38.778Z,1.73
2022-11-02T03:06:17.918Z,1.67
2022-11-02T03:09:03.578Z,2.22
2022-11-02T03:11:35.409Z,3.47
2022-11-02T03:14:18.427Z,2.78
2022-11-02T03:17:08.747Z,2.50
2022-11-02T03:19:50.629Z,2.38
2022-11-02T03:22:31.315Z,2.67
2022-11-02T03:25:11.595Z,2.28
2022-11-02T03:27:50.052Z,2.55
2022-11-02T03:30:33.131Z,3.08
2022-11-02T03:33:10.571Z,3.78
2022-11-02T03:35:46.650Z,2.55
2022-11-02T03:38:22.606Z,2.72
2022-11-02T03:40:56.951Z,4.40
2022-11-02T03:43:27.960Z,3.33
2022-11-02T03:46:00.878Z,3.13
2022-11-02T03:48:37.057Z,4.15
2022-11-02T03:51:12.768Z,3.28
2022-11-02T03:53:47.806Z,4.43
2022-11-02T03:59:40.955Z,2.63
2022-11-02T04:02:11.682Z,3.33
2022-11-02T04:04:51.630Z,5.30
2022-11-02T04:07:29.868Z,3.15
